sensor_id;sensor_type;location;lat;lon;timestamp;P1;durP1;ratioP1;P2;durP2;ratioP2
41167;SDS011;26906;45.658;9.272;2023-04-29T06:39:37;44.83;;;12.77;;
41167;SDS011;26906;45.658;9.272;2023-04-29T06:42:15;66.95;;;22.73;;
41167;SDS011;26906;45.658;9.272;2023-04-29T06:44:59;83.60;;;25.15;;
41167;SDS011;26906;45.658;9.272;2023-04-29T06:47:36;267.85;;;37.78;;
41167;SDS011;26906;45.658;9.272;2023-04-29T06:50:05;116.03;;;20.65;;
41167;SDS011;26906;45.658;9.272;2023-04-29T06:52:31;20.13;;;9.73;;
41167;SDS011;26906;45.658;9.272;2023-04-29T06:54:57;23.98;;;9.00;;
41167;SDS011;26906;45.658;9.272;2023-04-29T06:57:23;29.38;;;9.27;;
41167;SDS011;26906;45.658;9.272;2023-04-29T06:59:48;16.77;;;8.27;;
41167;SDS011;26906;45.658;9.272;2023-04-29T07:02:14;63.25;;;12.02;;
41167;SDS011;26906;45.658;9.272;2023-04-29T07:04:40;52.17;;;15.82;;
41167;SDS011;26906;45.658;9.272;2023-04-29T07:07:06;38.75;;;13.23;;
41167;SDS011;26906;45.658;9.272;2023-04-29T07:09:32;30.77;;;11.98;;
41167;SDS011;26906;45.658;9.272;2023-04-29T07:11:58;93.72;;;16.45;;
41167;SDS011;26906;45.658;9.272;2023-04-29T07:14:25;68.88;;;12.10;;
41167;SDS011;26906;45.658;9.272;2023-04-29T07:16:53;21.88;;;7.65;;
41167;SDS011;26906;45.658;9.272;2023-04-29T07:19:19;32.88;;;9.93;;
41167;SDS011;26906;45.658;9.272;2023-04-29T07:21:45;27.15;;;9.25;;
41167;SDS011;26906;45.658;9.272;2023-04-29T07:24:11;33.97;;;9.77;;
41167;SDS011;26906;45.658;9.272;2023-04-29T07:26:37;21.70;;;8.88;;
41167;SDS011;26906;45.658;9.272;2023-04-29T07:29:02;48.17;;;11.55;;
41167;SDS011;26906;45.658;9.272;2023-04-29T07:31:28;54.03;;;14.45;;
41167;SDS011;26906;45.658;9.272;2023-04-29T07:33:54;53.67;;;12.75;;
41167;SDS011;26906;45.658;9.272;2023-04-29T07:36:21;98.22;;;32.13;;
41167;SDS011;26906;45.658;9.272;2023-04-29T07:38:46;52.03;;;20.27;;
41167;SDS011;26906;45.658;9.272;2023-04-29T07:41:13;48.33;;;18.58;;
41167;SDS011;26906;45.658;9.272;2023-04-29T07:43:38;98.22;;;25.35;;
41167;SDS011;26906;45.658;9.272;2023-04-29T07:46:04;107.15;;;18.67;;
41167;SDS011;26906;45.658;9.272;2023-04-29T07:48:30;22.02;;;8.98;;
41167;SDS011;26906;45.658;9.272;2023-04-29T07:51:02;86.65;;;17.42;;
41167;SDS011;26906;45.658;9.272;2023-04-29T07:53:28;91.18;;;14.00;;
41167;SDS011;26906;45.658;9.272;2023-04-29T07:55:53;54.15;;;11.95;;
41167;SDS011;26906;45.658;9.272;2023-04-29T07:58:21;22.77;;;7.47;;
41167;SDS011;26906;45.658;9.272;2023-04-29T08:00:47;56.78;;;10.38;;
41167;SDS011;26906;45.658;9.272;2023-04-29T08:03:14;11.88;;;7.20;;
41167;SDS011;26906;45.658;9.272;2023-04-29T08:05:39;31.33;;;8.40;;
41167;SDS011;26906;45.658;9.272;2023-04-29T08:08:06;20.60;;;8.13;;
41167;SDS011;26906;45.658;9.272;2023-04-29T08:10:32;42.88;;;8.90;;
41167;SDS011;26906;45.658;9.272;2023-04-29T08:13:02;121.80;;;20.27;;
41167;SDS011;26906;45.658;9.272;2023-04-29T08:15:27;31.60;;;8.10;;
41167;SDS011;26906;45.658;9.272;2023-04-29T08:17:53;29.10;;;8.38;;
41167;SDS011;26906;45.658;9.272;2023-04-29T08:20:20;69.40;;;16.85;;
41167;SDS011;26906;45.658;9.272;2023-04-29T08:22:45;9.88;;;6.63;;
41167;SDS011;26906;45.658;9.272;2023-04-29T08:25:12;42.17;;;9.45;;
41167;SDS011;26906;45.658;9.272;2023-04-29T08:27:38;88.47;;;14.15;;
41167;SDS011;26906;45.658;9.272;2023-04-29T08:30:04;102.20;;;13.23;;
41167;SDS011;26906;45.658;9.272;2023-04-29T08:32:30;114.03;;;17.38;;
41167;SDS011;26906;45.658;9.272;2023-04-29T08:34:59;199.55;;;23.50;;
41167;SDS011;26906;45.658;9.272;2023-04-29T08:37:28;63.10;;;10.45;;
41167;SDS011;26906;45.658;9.272;2023-04-29T08:39:54;118.38;;;13.48;;
41167;SDS011;26906;45.658;9.272;2023-04-29T08:42:25;108.72;;;15.15;;
41167;SDS011;26906;45.658;9.272;2023-04-29T08:44:59;45.53;;;10.00;;
41167;SDS011;26906;45.658;9.272;2023-04-29T08:47:31;100.45;;;12.60;;
41167;SDS011;26906;45.658;9.272;2023-04-29T08:50:04;99.82;;;12.05;;
41167;SDS011;26906;45.658;9.272;2023-04-29T08:52:37;114.20;;;22.48;;
41167;SDS011;26906;45.658;9.272;2023-04-29T08:55:04;16.80;;;8.30;;
41167;SDS011;26906;45.658;9.272;2023-04-29T08:57:35;32.85;;;9.75;;
41167;SDS011;26906;45.658;9.272;2023-04-29T09:00:05;17.50;;;8.93;;
41167;SDS011;26906;45.658;9.272;2023-04-29T09:02:38;68.80;;;14.88;;
41167;SDS011;26906;45.658;9.272;2023-04-29T09:05:09;15.50;;;7.55;;
41167;SDS011;26906;45.658;9.272;2023-04-29T09:07:36;25.25;;;8.82;;
41167;SDS011;26906;45.658;9.272;2023-04-29T09:10:03;18.42;;;8.02;;
41167;SDS011;26906;45.658;9.272;2023-04-29T09:12:30;23.48;;;8.70;;
41167;SDS011;26906;45.658;9.272;2023-04-29T09:14:56;66.13;;;12.20;;
41167;SDS011;26906;45.658;9.272;2023-04-29T09:25:21;23.98;;;7.80;;
41167;SDS011;26906;45.658;9.272;2023-04-29T09:27:48;164.55;;;20.98;;
41167;SDS011;26906;45.658;9.272;2023-04-29T09:30:14;31.92;;;9.82;;
41167;SDS011;26906;45.658;9.272;2023-04-29T09:32:44;20.25;;;8.35;;
41167;SDS011;26906;45.658;9.272;2023-04-29T09:37:47;25.33;;;8.80;;
41167;SDS011;26906;45.658;9.272;2023-04-29T09:40:32;27.05;;;9.32;;
41167;SDS011;26906;45.658;9.272;2023-04-29T09:42:58;63.72;;;14.05;;
41167;SDS011;26906;45.658;9.272;2023-04-29T09:48:02;45.00;;;10.40;;
41167;SDS011;26906;45.658;9.272;2023-04-29T09:50:32;47.15;;;10.93;;
41167;SDS011;26906;45.658;9.272;2023-04-29T09:52:58;12.13;;;8.32;;
41167;SDS011;26906;45.658;9.272;2023-04-29T09:55:25;28.23;;;8.02;;
41167;SDS011;26906;45.658;9.272;2023-04-29T09:57:54;47.38;;;10.82;;
41167;SDS011;26906;45.658;9.272;2023-04-29T10:00:20;40.50;;;10.20;;
41167;SDS011;26906;45.658;9.272;2023-04-29T10:02:47;37.47;;;9.82;;
41167;SDS011;26906;45.658;9.272;2023-04-29T10:05:14;39.42;;;10.93;;
41167;SDS011;26906;45.658;9.272;2023-04-29T10:07:40;28.35;;;8.88;;
41167;SDS011;26906;45.658;9.272;2023-04-29T10:10:07;51.72;;;11.18;;
41167;SDS011;26906;45.658;9.272;2023-04-29T10:12:36;40.72;;;9.43;;
41167;SDS011;26906;45.658;9.272;2023-04-29T10:15:25;33.30;;;8.82;;
41167;SDS011;26906;45.658;9.272;2023-04-29T10:20:34;16.33;;;8.05;;
41167;SDS011;26906;45.658;9.272;2023-04-29T10:23:04;28.20;;;9.40;;
41167;SDS011;26906;45.658;9.272;2023-04-29T10:25:30;40.30;;;9.77;;
41167;SDS011;26906;45.658;9.272;2023-04-29T10:28:03;65.75;;;12.23;;
41167;SDS011;26906;45.658;9.272;2023-04-29T10:30:29;48.10;;;9.80;;
41167;SDS011;26906;45.658;9.272;2023-04-29T10:32:56;64.60;;;12.05;;
41167;SDS011;26906;45.658;9.272;2023-04-29T10:35:26;57.47;;;10.65;;
41167;SDS011;26906;45.658;9.272;2023-04-29T10:37:52;17.20;;;7.80;;
41167;SDS011;26906;45.658;9.272;2023-04-29T10:40:27;11.00;;;7.00;;
41167;SDS011;26906;45.658;9.272;2023-04-29T10:42:54;9.80;;;6.90;;
41167;SDS011;26906;45.658;9.272;2023-04-29T10:45:21;11.77;;;7.22;;
41167;SDS011;26906;45.658;9.272;2023-04-29T10:53:11;24.95;;;8.73;;
41167;SDS011;26906;45.658;9.272;2023-04-29T10:55:41;37.53;;;9.90;;
41167;SDS011;26906;45.658;9.272;2023-04-29T11:01:02;23.70;;;7.32;;
41167;SDS011;26906;45.658;9.272;2023-04-29T11:06:39;101.88;;;9.30;;
41167;SDS011;26906;45.658;9.272;2023-04-29T11:09:08;36.78;;;9.73;;
41167;SDS011;26906;45.658;9.272;2023-04-29T11:12:07;28.17;;;8.68;;
41167;SDS011;26906;45.658;9.272;2023-04-29T11:14:41;31.42;;;10.00;;
41167;SDS011;26906;45.658;9.272;2023-04-29T11:17:13;16.10;;;6.97;;
41167;SDS011;26906;45.658;9.272;2023-04-29T11:19:50;14.32;;;6.68;;
41167;SDS011;26906;45.658;9.272;2023-04-29T11:24:50;58.63;;;10.35;;
41167;SDS011;26906;45.658;9.272;2023-04-29T11:27:25;11.45;;;6.05;;
41167;SDS011;26906;45.658;9.272;2023-04-29T11:29:54;7.97;;;5.63;;
41167;SDS011;26906;45.658;9.272;2023-04-29T11:32:23;14.63;;;6.10;;
41167;SDS011;26906;45.658;9.272;2023-04-29T11:34:50;10.77;;;5.60;;
41167;SDS011;26906;45.658;9.272;2023-04-29T11:37:20;10.15;;;5.38;;
41167;SDS011;26906;45.658;9.272;2023-04-29T11:39:51;11.15;;;5.88;;
41167;SDS011;26906;45.658;9.272;2023-04-29T11:42:25;11.63;;;5.90;;
41167;SDS011;26906;45.658;9.272;2023-04-29T11:44:55;10.50;;;5.30;;
41167;SDS011;26906;45.658;9.272;2023-04-29T11:47:29;11.95;;;5.47;;
41167;SDS011;26906;45.658;9.272;2023-04-29T11:50:03;10.57;;;6.57;;
41167;SDS011;26906;45.658;9.272;2023-04-29T11:52:34;11.05;;;6.97;;
41167;SDS011;26906;45.658;9.272;2023-04-29T11:55:01;13.65;;;5.72;;
41167;SDS011;26906;45.658;9.272;2023-04-29T11:57:32;13.40;;;7.20;;
41167;SDS011;26906;45.658;9.272;2023-04-29T11:59:58;10.43;;;5.68;;
41167;SDS011;26906;45.658;9.272;2023-04-29T12:02:28;8.95;;;5.35;;
41167;SDS011;26906;45.658;9.272;2023-04-29T12:04:56;9.25;;;5.68;;
41167;SDS011;26906;45.658;9.272;2023-04-29T12:07:22;10.95;;;5.90;;
41167;SDS011;26906;45.658;9.272;2023-04-29T12:09:48;11.30;;;5.60;;
41167;SDS011;26906;45.658;9.272;2023-04-29T12:12:14;10.35;;;5.40;;
41167;SDS011;26906;45.658;9.272;2023-04-29T12:14:41;7.43;;;5.43;;
41167;SDS011;26906;45.658;9.272;2023-04-29T12:17:10;10.98;;;6.05;;
41167;SDS011;26906;45.658;9.272;2023-04-29T12:19:39;8.45;;;5.25;;
41167;SDS011;26906;45.658;9.272;2023-04-29T12:22:08;11.65;;;5.85;;
41167;SDS011;26906;45.658;9.272;2023-04-29T12:24:37;9.10;;;6.10;;
41167;SDS011;26906;45.658;9.272;2023-04-29T12:27:07;7.85;;;5.55;;
41167;SDS011;26906;45.658;9.272;2023-04-29T12:29:34;8.43;;;5.30;;
41167;SDS011;26906;45.658;9.272;2023-04-29T12:32:01;11.55;;;6.38;;
41167;SDS011;26906;45.658;9.272;2023-04-29T12:34:27;11.27;;;5.20;;
41167;SDS011;26906;45.658;9.272;2023-04-29T12:36:57;10.73;;;5.47;;
41167;SDS011;26906;45.658;9.272;2023-04-29T12:39:27;9.35;;;5.63;;
41167;SDS011;26906;45.658;9.272;2023-04-29T12:41:58;8.55;;;5.72;;
41167;SDS011;26906;45.658;9.272;2023-04-29T12:44:24;10.20;;;6.40;;
41167;SDS011;26906;45.658;9.272;2023-04-29T12:46:51;8.73;;;5.97;;
41167;SDS011;26906;45.658;9.272;2023-04-29T12:49:17;8.55;;;5.13;;
41167;SDS011;26906;45.658;9.272;2023-04-29T12:51:44;8.95;;;6.22;;
41167;SDS011;26906;45.658;9.272;2023-04-29T12:54:10;12.05;;;5.63;;
41167;SDS011;26906;45.658;9.272;2023-04-29T12:56:36;9.98;;;5.95;;
41167;SDS011;26906;45.658;9.272;2023-04-29T12:59:08;8.82;;;5.72;;
41167;SDS011;26906;45.658;9.272;2023-04-29T13:01:36;9.20;;;5.78;;
41167;SDS011;26906;45.658;9.272;2023-04-29T13:04:06;10.40;;;5.30;;
41167;SDS011;26906;45.658;9.272;2023-04-29T13:06:33;6.75;;;5.22;;
41167;SDS011;26906;45.658;9.272;2023-04-29T13:09:05;10.20;;;5.32;;
41167;SDS011;26906;45.658;9.272;2023-04-29T13:11:40;10.95;;;5.53;;
41167;SDS011;26906;45.658;9.272;2023-04-29T13:14:06;6.68;;;5.47;;
41167;SDS011;26906;45.658;9.272;2023-04-29T13:16:32;8.65;;;4.80;;
41167;SDS011;26906;45.658;9.272;2023-04-29T13:19:00;9.13;;;5.35;;
41167;SDS011;26906;45.658;9.272;2023-04-29T13:21:26;6.80;;;4.32;;
41167;SDS011;26906;45.658;9.272;2023-04-29T13:23:53;7.07;;;4.72;;
41167;SDS011;26906;45.658;9.272;2023-04-29T13:26:19;6.65;;;4.55;;
41167;SDS011;26906;45.658;9.272;2023-04-29T13:28:45;13.98;;;5.85;;
41167;SDS011;26906;45.658;9.272;2023-04-29T13:31:11;8.13;;;4.75;;
41167;SDS011;26906;45.658;9.272;2023-04-29T13:33:36;11.02;;;5.70;;
41167;SDS011;26906;45.658;9.272;2023-04-29T13:36:02;7.60;;;4.90;;
41167;SDS011;26906;45.658;9.272;2023-04-29T13:38:28;9.82;;;5.35;;
41167;SDS011;26906;45.658;9.272;2023-04-29T13:40:55;9.32;;;4.68;;
41167;SDS011;26906;45.658;9.272;2023-04-29T13:43:21;7.88;;;5.13;;
41167;SDS011;26906;45.658;9.272;2023-04-29T13:45:47;7.28;;;5.38;;
41167;SDS011;26906;45.658;9.272;2023-04-29T13:48:13;7.80;;;5.35;;
41167;SDS011;26906;45.658;9.272;2023-04-29T13:50:39;9.25;;;5.15;;
41167;SDS011;26906;45.658;9.272;2023-04-29T13:53:12;7.95;;;5.80;;
41167;SDS011;26906;45.658;9.272;2023-04-29T13:55:38;8.68;;;5.05;;
41167;SDS011;26906;45.658;9.272;2023-04-29T13:58:03;9.80;;;4.72;;
41167;SDS011;26906;45.658;9.272;2023-04-29T14:00:29;9.25;;;5.50;;
41167;SDS011;26906;45.658;9.272;2023-04-29T14:02:56;12.80;;;5.28;;
41167;SDS011;26906;45.658;9.272;2023-04-29T14:05:22;7.72;;;4.53;;
41167;SDS011;26906;45.658;9.272;2023-04-29T14:07:47;8.77;;;5.28;;
41167;SDS011;26906;45.658;9.272;2023-04-29T14:10:13;8.02;;;4.88;;
41167;SDS011;26906;45.658;9.272;2023-04-29T14:12:39;10.52;;;5.22;;
41167;SDS011;26906;45.658;9.272;2023-04-29T14:15:05;8.82;;;5.63;;
41167;SDS011;26906;45.658;9.272;2023-04-29T14:17:31;8.02;;;4.90;;
41167;SDS011;26906;45.658;9.272;2023-04-29T14:19:57;8.07;;;4.60;;
41167;SDS011;26906;45.658;9.272;2023-04-29T14:22:23;8.02;;;5.57;;
41167;SDS011;26906;45.658;9.272;2023-04-29T14:24:48;10.73;;;5.45;;
41167;SDS011;26906;45.658;9.272;2023-04-29T14:27:15;8.40;;;4.43;;
41167;SDS011;26906;45.658;9.272;2023-04-29T14:29:41;8.27;;;4.90;;
41167;SDS011;26906;45.658;9.272;2023-04-29T14:32:06;6.20;;;4.93;;
41167;SDS011;26906;45.658;9.272;2023-04-29T14:34:32;7.25;;;5.28;;
41167;SDS011;26906;45.658;9.272;2023-04-29T14:36:57;7.25;;;5.10;;
41167;SDS011;26906;45.658;9.272;2023-04-29T14:39:23;7.47;;;5.13;;
41167;SDS011;26906;45.658;9.272;2023-04-29T14:41:51;7.72;;;4.95;;
41167;SDS011;26906;45.658;9.272;2023-04-29T14:44:17;10.25;;;6.20;;
41167;SDS011;26906;45.658;9.272;2023-04-29T14:46:43;8.95;;;5.80;;
41167;SDS011;26906;45.658;9.272;2023-04-29T14:49:08;13.90;;;6.13;;
41167;SDS011;26906;45.658;9.272;2023-04-29T14:51:34;10.10;;;5.97;;
41167;SDS011;26906;45.658;9.272;2023-04-29T14:54:00;7.97;;;5.82;;
41167;SDS011;26906;45.658;9.272;2023-04-29T14:56:26;8.38;;;5.85;;
41167;SDS011;26906;45.658;9.272;2023-04-29T14:58:52;8.00;;;5.65;;
41167;SDS011;26906;45.658;9.272;2023-04-29T15:01:18;8.43;;;5.18;;
41167;SDS011;26906;45.658;9.272;2023-04-29T15:03:44;7.95;;;4.88;;
41167;SDS011;26906;45.658;9.272;2023-04-29T15:06:10;7.72;;;4.50;;
41167;SDS011;26906;45.658;9.272;2023-04-29T15:08:36;7.20;;;5.22;;
41167;SDS011;26906;45.658;9.272;2023-04-29T15:11:02;9.02;;;5.57;;
41167;SDS011;26906;45.658;9.272;2023-04-29T15:13:28;11.57;;;7.38;;
41167;SDS011;26906;45.658;9.272;2023-04-29T15:15:54;9.52;;;6.75;;
41167;SDS011;26906;45.658;9.272;2023-04-29T15:18:21;12.05;;;8.93;;
41167;SDS011;26906;45.658;9.272;2023-04-29T15:20:47;10.95;;;8.02;;
41167;SDS011;26906;45.658;9.272;2023-04-29T15:23:14;14.60;;;8.45;;
41167;SDS011;26906;45.658;9.272;2023-04-29T15:25:40;12.27;;;8.52;;
41167;SDS011;26906;45.658;9.272;2023-04-29T15:28:06;13.10;;;8.85;;
41167;SDS011;26906;45.658;9.272;2023-04-29T15:30:32;16.95;;;8.25;;
41167;SDS011;26906;45.658;9.272;2023-04-29T15:32:57;12.65;;;8.43;;
41167;SDS011;26906;45.658;9.272;2023-04-29T15:35:23;12.82;;;8.38;;
41167;SDS011;26906;45.658;9.272;2023-04-29T15:37:49;9.43;;;8.10;;
41167;SDS011;26906;45.658;9.272;2023-04-29T15:40:15;12.90;;;9.20;;
41167;SDS011;26906;45.658;9.272;2023-04-29T15:42:41;10.95;;;8.77;;
41167;SDS011;26906;45.658;9.272;2023-04-29T15:45:07;20.10;;;9.35;;
41167;SDS011;26906;45.658;9.272;2023-04-29T15:47:33;12.27;;;8.40;;
41167;SDS011;26906;45.658;9.272;2023-04-29T15:50:00;14.70;;;8.65;;
41167;SDS011;26906;45.658;9.272;2023-04-29T15:52:26;13.45;;;8.25;;
41167;SDS011;26906;45.658;9.272;2023-04-29T15:54:52;10.43;;;8.00;;
41167;SDS011;26906;45.658;9.272;2023-04-29T15:57:19;13.15;;;8.60;;
41167;SDS011;26906;45.658;9.272;2023-04-29T15:59:45;14.43;;;8.80;;
41167;SDS011;26906;45.658;9.272;2023-04-29T16:02:10;13.32;;;8.50;;
41167;SDS011;26906;45.658;9.272;2023-04-29T16:04:36;13.32;;;8.50;;
41167;SDS011;26906;45.658;9.272;2023-04-29T16:07:03;13.05;;;8.00;;
41167;SDS011;26906;45.658;9.272;2023-04-29T16:09:30;14.25;;;8.65;;
41167;SDS011;26906;45.658;9.272;2023-04-29T16:11:56;13.50;;;7.72;;
41167;SDS011;26906;45.658;9.272;2023-04-29T16:14:22;12.80;;;8.68;;
41167;SDS011;26906;45.658;9.272;2023-04-29T16:16:48;10.95;;;8.80;;
41167;SDS011;26906;45.658;9.272;2023-04-29T16:19:14;13.43;;;8.90;;
41167;SDS011;26906;45.658;9.272;2023-04-29T16:21:41;12.25;;;9.15;;
41167;SDS011;26906;45.658;9.272;2023-04-29T16:24:12;32.42;;;8.93;;
41167;SDS011;26906;45.658;9.272;2023-04-29T16:26:39;15.45;;;8.35;;
41167;SDS011;26906;45.658;9.272;2023-04-29T16:29:06;12.90;;;8.48;;
41167;SDS011;26906;45.658;9.272;2023-04-29T16:31:32;13.35;;;8.38;;
41167;SDS011;26906;45.658;9.272;2023-04-29T16:33:58;18.77;;;8.35;;
41167;SDS011;26906;45.658;9.272;2023-04-29T16:36:24;15.80;;;7.60;;
41167;SDS011;26906;45.658;9.272;2023-04-29T16:38:50;13.43;;;8.15;;
41167;SDS011;26906;45.658;9.272;2023-04-29T16:41:20;11.32;;;7.88;;
41167;SDS011;26906;45.658;9.272;2023-04-29T16:43:50;16.13;;;9.43;;
41167;SDS011;26906;45.658;9.272;2023-04-29T16:46:17;12.32;;;8.23;;
41167;SDS011;26906;45.658;9.272;2023-04-29T16:48:42;20.25;;;9.77;;
41167;SDS011;26906;45.658;9.272;2023-04-29T16:51:09;18.55;;;8.68;;
41167;SDS011;26906;45.658;9.272;2023-04-29T16:53:35;12.52;;;8.30;;
41167;SDS011;26906;45.658;9.272;2023-04-29T16:56:00;12.70;;;8.30;;
41167;SDS011;26906;45.658;9.272;2023-04-29T16:58:27;13.98;;;8.50;;
41167;SDS011;26906;45.658;9.272;2023-04-29T17:00:53;9.23;;;8.23;;
41167;SDS011;26906;45.658;9.272;2023-04-29T17:03:19;12.65;;;8.98;;
41167;SDS011;26906;45.658;9.272;2023-04-29T17:05:45;11.82;;;8.07;;
41167;SDS011;26906;45.658;9.272;2023-04-29T17:08:12;10.48;;;8.35;;
41167;SDS011;26906;45.658;9.272;2023-04-29T17:10:38;10.77;;;7.75;;
41167;SDS011;26906;45.658;9.272;2023-04-29T17:13:04;14.73;;;8.73;;
41167;SDS011;26906;45.658;9.272;2023-04-29T17:15:30;12.77;;;9.15;;
41167;SDS011;26906;45.658;9.272;2023-04-29T17:17:56;13.23;;;9.57;;
41167;SDS011;26906;45.658;9.272;2023-04-29T17:20:24;12.90;;;9.40;;
41167;SDS011;26906;45.658;9.272;2023-04-29T17:22:50;15.30;;;9.60;;
41167;SDS011;26906;45.658;9.272;2023-04-29T17:25:15;13.63;;;9.85;;
41167;SDS011;26906;45.658;9.272;2023-04-29T17:27:43;14.18;;;9.70;;
41167;SDS011;26906;45.658;9.272;2023-04-29T17:30:10;13.95;;;9.50;;
41167;SDS011;26906;45.658;9.272;2023-04-29T17:32:36;13.65;;;9.95;;
41167;SDS011;26906;45.658;9.272;2023-04-29T17:35:05;22.88;;;10.23;;
41167;SDS011;26906;45.658;9.272;2023-04-29T17:37:32;13.85;;;9.02;;
41167;SDS011;26906;45.658;9.272;2023-04-29T17:39:57;19.40;;;10.48;;
41167;SDS011;26906;45.658;9.272;2023-04-29T17:42:23;12.88;;;9.77;;
41167;SDS011;26906;45.658;9.272;2023-04-29T17:44:49;12.98;;;10.48;;
41167;SDS011;26906;45.658;9.272;2023-04-29T17:47:15;14.80;;;10.43;;
41167;SDS011;26906;45.658;9.272;2023-04-29T17:49:41;14.65;;;11.45;;
41167;SDS011;26906;45.658;9.272;2023-04-29T17:52:09;15.10;;;11.25;;
41167;SDS011;26906;45.658;9.272;2023-04-29T17:54:37;13.07;;;11.38;;
41167;SDS011;26906;45.658;9.272;2023-04-29T17:57:04;14.13;;;11.77;;
41167;SDS011;26906;45.658;9.272;2023-04-29T17:59:29;12.95;;;11.25;;
41167;SDS011;26906;45.658;9.272;2023-04-29T18:01:55;15.45;;;12.43;;
41167;SDS011;26906;45.658;9.272;2023-04-29T18:04:21;20.70;;;11.93;;
41167;SDS011;26906;45.658;9.272;2023-04-29T18:06:47;12.38;;;11.07;;
41167;SDS011;26906;45.658;9.272;2023-04-29T18:09:13;13.30;;;10.73;;
41167;SDS011;26906;45.658;9.272;2023-04-29T18:11:38;15.05;;;10.45;;
41167;SDS011;26906;45.658;9.272;2023-04-29T18:14:04;16.15;;;10.48;;
41167;SDS011;26906;45.658;9.272;2023-04-29T18:16:30;13.90;;;10.57;;
41167;SDS011;26906;45.658;9.272;2023-04-29T18:18:56;15.63;;;9.95;;
41167;SDS011;26906;45.658;9.272;2023-04-29T18:21:22;16.13;;;10.95;;
41167;SDS011;26906;45.658;9.272;2023-04-29T18:23:49;17.63;;;11.70;;
41167;SDS011;26906;45.658;9.272;2023-04-29T18:26:14;15.07;;;11.23;;
41167;SDS011;26906;45.658;9.272;2023-04-29T18:28:40;14.27;;;11.73;;
41167;SDS011;26906;45.658;9.272;2023-04-29T18:31:06;16.40;;;11.88;;
41167;SDS011;26906;45.658;9.272;2023-04-29T18:33:32;16.20;;;13.57;;
41167;SDS011;26906;45.658;9.272;2023-04-29T18:36:00;14.10;;;12.68;;
41167;SDS011;26906;45.658;9.272;2023-04-29T18:38:26;15.70;;;13.23;;
41167;SDS011;26906;45.658;9.272;2023-04-29T18:40:54;16.08;;;13.50;;
41167;SDS011;26906;45.658;9.272;2023-04-29T18:43:20;16.08;;;13.38;;
41167;SDS011;26906;45.658;9.272;2023-04-29T18:45:52;18.48;;;14.40;;
41167;SDS011;26906;45.658;9.272;2023-04-29T18:48:19;16.65;;;13.60;;
41167;SDS011;26906;45.658;9.272;2023-04-29T18:50:45;15.80;;;14.20;;
41167;SDS011;26906;45.658;9.272;2023-04-29T18:53:11;18.75;;;15.68;;
41167;SDS011;26906;45.658;9.272;2023-04-29T18:55:38;16.40;;;14.75;;
41167;SDS011;26906;45.658;9.272;2023-04-29T18:58:03;18.23;;;14.48;;
41167;SDS011;26906;45.658;9.272;2023-04-29T19:00:29;19.63;;;16.05;;
41167;SDS011;26906;45.658;9.272;2023-04-29T19:02:55;21.27;;;15.75;;
41167;SDS011;26906;45.658;9.272;2023-04-29T19:05:21;18.65;;;15.60;;
41167;SDS011;26906;45.658;9.272;2023-04-29T19:07:47;21.35;;;17.35;;
41167;SDS011;26906;45.658;9.272;2023-04-29T19:10:13;22.58;;;17.45;;
41167;SDS011;26906;45.658;9.272;2023-04-29T19:12:39;19.92;;;16.35;;
41167;SDS011;26906;45.658;9.272;2023-04-29T19:15:04;19.02;;;16.90;;
41167;SDS011;26906;45.658;9.272;2023-04-29T19:17:32;18.35;;;15.52;;
41167;SDS011;26906;45.658;9.272;2023-04-29T19:19:58;20.10;;;16.20;;
41167;SDS011;26906;45.658;9.272;2023-04-29T19:22:27;17.05;;;15.35;;
41167;SDS011;26906;45.658;9.272;2023-04-29T19:24:55;18.38;;;16.05;;
41167;SDS011;26906;45.658;9.272;2023-04-29T19:27:20;19.15;;;14.95;;
41167;SDS011;26906;45.658;9.272;2023-04-29T19:29:47;16.60;;;13.90;;
41167;SDS011;26906;45.658;9.272;2023-04-29T19:32:16;17.60;;;15.60;;
41167;SDS011;26906;45.658;9.272;2023-04-29T19:34:49;18.73;;;15.85;;
41167;SDS011;26906;45.658;9.272;2023-04-29T19:37:21;19.98;;;15.98;;
41167;SDS011;26906;45.658;9.272;2023-04-29T19:39:47;18.10;;;15.50;;
41167;SDS011;26906;45.658;9.272;2023-04-29T19:42:13;18.58;;;15.52;;
41167;SDS011;26906;45.658;9.272;2023-04-29T19:44:43;18.02;;;15.90;;
41167;SDS011;26906;45.658;9.272;2023-04-29T19:47:09;20.55;;;17.33;;
41167;SDS011;26906;45.658;9.272;2023-04-29T19:49:35;20.98;;;17.90;;
41167;SDS011;26906;45.658;9.272;2023-04-29T19:52:01;24.75;;;16.58;;
41167;SDS011;26906;45.658;9.272;2023-04-29T19:54:27;18.30;;;16.35;;
41167;SDS011;26906;45.658;9.272;2023-04-29T19:56:53;18.52;;;15.85;;
41167;SDS011;26906;45.658;9.272;2023-04-29T19:59:20;20.92;;;16.35;;
41167;SDS011;26906;45.658;9.272;2023-04-29T20:01:45;19.10;;;16.45;;
41167;SDS011;26906;45.658;9.272;2023-04-29T20:04:11;21.00;;;16.30;;
41167;SDS011;26906;45.658;9.272;2023-04-29T20:06:37;17.55;;;15.65;;
41167;SDS011;26906;45.658;9.272;2023-04-29T20:09:02;19.77;;;16.52;;
41167;SDS011;26906;45.658;9.272;2023-04-29T20:11:28;19.38;;;16.77;;
41167;SDS011;26906;45.658;9.272;2023-04-29T20:13:54;22.00;;;18.20;;
41167;SDS011;26906;45.658;9.272;2023-04-29T20:16:20;22.75;;;18.60;;
41167;SDS011;26906;45.658;9.272;2023-04-29T20:18:47;22.20;;;19.63;;
